createdAt,value
2019-04-03T00:01:37.348Z,98509.92
2019-04-03T00:04:07.191Z,98511.70
2019-04-03T00:06:36.997Z,98517.77
2019-04-03T00:09:08.043Z,98513.88
2019-04-03T00:11:39.738Z,98512.64
2019-04-03T00:14:12.177Z,98514.02
2019-04-03T00:16:40.547Z,98509.28
2019-04-03T00:19:10.421Z,98507.95
2019-04-03T00:21:40.282Z,98514.06
2019-04-03T00:24:09.880Z,98506.72
2019-04-03T00:26:39.431Z,98506.80
2019-04-03T00:29:09.165Z,98505.47
2019-04-03T00:31:38.638Z,98505.02
2019-04-03T00:34:08.268Z,98505.05
2019-04-03T00:36:37.972Z,98506.32
2019-04-03T00:39:08.556Z,98503.73
2019-04-03T00:41:38.030Z,98503.30
2019-04-03T00:44:07.694Z,98506.35
2019-04-03T00:46:37.145Z,98495.92
2019-04-03T00:49:06.860Z,98502.41
2019-04-03T00:51:36.627Z,98504.10
2019-04-03T00:54:06.120Z,98499.31
2019-04-03T00:56:35.711Z,98504.14
2019-04-03T00:59:05.302Z,98500.72
2019-04-03T01:01:34.949Z,98499.83
2019-04-03T01:04:04.762Z,98496.39
2019-04-03T01:06:34.435Z,98494.23
2019-04-03T01:09:05.507Z,98491.22
2019-04-03T01:11:35.188Z,98486.44
2019-04-03T01:14:05.117Z,98486.42
2019-04-03T01:16:34.794Z,98489.88
2019-04-03T01:19:05.723Z,98486.42
2019-04-03T01:21:37.209Z,98488.61
2019-04-03T01:24:08.367Z,98490.75
2019-04-03T01:26:40.178Z,98486.45
2019-04-03T01:29:10.595Z,98488.16
2019-04-03T01:31:40.587Z,98487.31
2019-04-03T01:34:10.393Z,98483.42
2019-04-03T01:36:40.257Z,98480.38
2019-04-03T01:39:09.665Z,98483.84
2019-04-03T01:41:39.236Z,98481.67
2019-04-03T01:44:08.973Z,98478.64
2019-04-03T01:46:38.455Z,98474.31
2019-04-03T01:49:07.835Z,98470.86
2019-04-03T01:51:37.381Z,98473.02
2019-04-03T01:54:07.229Z,98467.81
2019-04-03T01:56:36.823Z,98467.37
2019-04-03T01:59:07.329Z,98472.58
2019-04-03T02:01:38.646Z,98459.17
2019-04-03T02:04:08.830Z,98461.30
2019-04-03T02:06:38.782Z,98456.97
2019-04-03T02:09:10.726Z,98454.39
2019-04-03T02:11:40.992Z,98448.75
2019-04-03T02:14:10.579Z,98453.95
2019-04-03T02:16:39.979Z,98448.76
2019-04-03T02:19:09.653Z,98454.81
2019-04-03T02:21:39.133Z,98454.84
2019-04-03T02:24:08.808Z,98449.17
2019-04-03T02:26:38.274Z,98444.86
2019-04-03T02:29:08.729Z,98447.03
2019-04-03T02:31:38.985Z,98444.01
2019-04-03T02:34:08.743Z,98447.89
2019-04-03T02:36:38.224Z,98444.86
2019-04-03T02:39:08.446Z,98437.52
2019-04-03T02:41:38.135Z,98437.09
2019-04-03T02:44:07.701Z,98434.91
2019-04-03T02:46:37.667Z,98437.52
2019-04-03T02:49:10.208Z,98435.80
2019-04-03T02:51:39.733Z,98440.10
2019-04-03T02:54:18.569Z,98438.81
2019-04-03T02:56:48.121Z,98435.80
2019-04-03T02:59:17.749Z,98437.08
2019-04-03T03:01:47.310Z,98436.20
2019-04-03T03:04:20.725Z,98440.53
2019-04-03T03:06:48.536Z,98438.80
2019-04-03T03:09:18.130Z,98435.78
2019-04-03T03:11:48.364Z,98434.47
2019-04-03T03:14:18.677Z,98433.17
2019-04-03T03:16:50.364Z,98441.42
2019-04-03T03:19:21.766Z,98434.91
2019-04-03T03:21:53.674Z,98434.89
2019-04-03T03:24:23.854Z,98438.79
2019-04-03T03:26:53.425Z,98438.79
2019-04-03T03:29:26.398Z,98444.45
2019-04-03T03:32:13.307Z,98443.12
2019-04-03T03:34:48.945Z,98443.98
2019-04-03T03:37:02.140Z,98441.84
2019-04-03T03:39:30.809Z,98443.58
2019-04-03T03:42:00.827Z,98443.12
2019-04-03T03:44:31.178Z,98444.02
2019-04-03T03:47:02.890Z,98444.44
2019-04-03T03:49:33.296Z,98444.45
2019-04-03T03:52:05.375Z,98442.28
2019-04-03T03:54:35.192Z,98438.81
2019-04-03T03:57:07.212Z,98437.95
2019-04-03T03:59:37.209Z,98438.80
2019-04-03T04:02:07.127Z,98437.95
2019-04-03T04:04:36.669Z,98437.08
2019-04-03T04:07:06.134Z,98439.22
2019-04-03T04:09:36.174Z,98438.36
2019-04-03T04:12:07.375Z,98436.61
2019-04-03T04:14:38.228Z,98442.69
2019-04-03T04:17:12.282Z,98435.73
2019-04-03T04:19:39.423Z,98439.66
2019-04-03T04:22:09.374Z,98439.66
2019-04-03T04:24:38.849Z,98453.50
2019-04-03T04:27:08.547Z,98440.92
2019-04-03T04:29:38.137Z,98443.52
2019-04-03T04:32:07.897Z,98440.08
2019-04-03T04:34:37.404Z,98445.67
2019-04-03T04:37:06.828Z,98450.89
2019-04-03T04:39:36.583Z,98450.03
2019-04-03T04:42:06.539Z,98451.77
2019-04-03T04:44:36.164Z,98444.81
2019-04-03T04:47:05.573Z,98444.81
2019-04-03T04:49:35.296Z,98445.25
2019-04-03T04:52:04.697Z,98446.12
2019-04-03T04:54:34.175Z,98450.44
2019-04-03T04:57:03.873Z,98443.50
2019-04-03T04:59:35.845Z,98444.38
2019-04-03T05:02:04.753Z,98447.82
2019-04-03T05:04:34.526Z,98449.98
2019-04-03T05:07:04.165Z,98446.00
2019-04-03T05:09:34.896Z,98452.45
2019-04-03T05:12:05.351Z,98442.03
2019-04-03T05:14:34.964Z,98434.59
2019-04-03T05:17:04.901Z,98438.91
2019-04-03T05:19:34.939Z,98436.33
2019-04-03T05:22:04.715Z,98440.64
2019-04-03T05:24:34.373Z,98441.48
2019-04-03T05:27:03.955Z,98437.58
2019-04-03T05:29:34.763Z,98440.52
2019-04-03T05:32:05.396Z,98437.02
2019-04-03T05:34:34.852Z,98431.85
2019-04-03T05:37:04.486Z,98437.45
2019-04-03T05:39:33.985Z,98434.34
2019-04-03T05:42:03.849Z,98436.44
2019-04-03T05:44:33.843Z,98435.89
2019-04-03T05:47:03.570Z,98435.41
2019-04-03T05:49:33.442Z,98438.49
2019-04-03T05:52:04.073Z,98431.99
2019-04-03T05:54:34.213Z,98436.75
2019-04-03T05:57:04.011Z,98437.98
2019-04-03T05:59:33.841Z,98439.99
2019-04-03T06:02:14.142Z,98434.16
2019-04-03T06:04:34.432Z,98436.16
2019-04-03T06:07:04.840Z,98435.96
2019-04-03T06:09:34.948Z,98433.19
2019-04-03T06:12:04.880Z,98435.61
2019-04-03T06:14:34.585Z,98433.73
2019-04-03T06:17:04.481Z,98431.09
2019-04-03T06:19:35.206Z,98433.57
2019-04-03T06:22:05.571Z,98435.12
2019-04-03T06:24:35.440Z,98431.08
2019-04-03T06:27:05.045Z,98430.63
2019-04-03T06:29:34.762Z,98425.35
2019-04-03T06:32:06.281Z,98427.42
2019-04-03T06:34:38.420Z,98421.66
2019-04-03T06:37:07.259Z,98428.14
2019-04-03T06:39:36.815Z,98425.28
2019-04-03T06:42:06.395Z,98427.70
2019-04-03T06:44:36.228Z,98430.98
2019-04-03T06:47:05.725Z,98430.78
2019-04-03T06:49:35.141Z,98432.00
2019-04-03T06:52:05.628Z,98428.69
2019-04-03T06:54:35.268Z,98434.11
2019-04-03T06:57:04.998Z,98431.68
2019-04-03T06:59:34.421Z,98428.88
2019-04-03T07:02:04.619Z,98429.18
2019-04-03T07:04:34.112Z,98433.67
2019-04-03T07:07:03.668Z,98438.68
2019-04-03T07:09:36.479Z,98436.02
2019-04-03T07:12:04.648Z,98434.94
2019-04-03T07:14:34.469Z,98434.52
2019-04-03T07:17:05.869Z,98441.95
2019-04-03T07:19:35.595Z,98437.22
2019-04-03T07:22:05.642Z,98441.05
2019-04-03T07:24:35.394Z,98440.23
2019-04-03T07:27:06.295Z,98437.80
2019-04-03T07:29:36.298Z,98431.66
2019-04-03T07:32:06.089Z,98436.34
2019-04-03T07:34:36.287Z,98449.72
2019-04-03T07:37:05.949Z,98442.69
2019-04-03T07:39:35.459Z,98450.42
2019-04-03T07:42:05.344Z,98446.95
2019-04-03T07:44:35.035Z,98445.03
2019-04-03T07:47:04.875Z,98440.41
2019-04-03T07:49:34.812Z,98442.39
2019-04-03T07:52:04.751Z,98439.88
2019-04-03T07:54:34.732Z,98448.25
2019-04-03T07:57:04.434Z,98436.69
2019-04-03T07:59:34.756Z,98438.77
2019-04-03T08:02:04.878Z,98438.64
2019-04-03T08:04:34.669Z,98438.97
2019-04-03T08:07:04.251Z,98436.66
2019-04-03T08:09:33.878Z,98437.87
2019-04-03T08:12:04.432Z,98435.38
2019-04-03T08:14:34.018Z,98431.06
2019-04-03T08:17:03.822Z,98430.20
2019-04-03T08:19:33.429Z,98426.51
2019-04-03T08:22:02.877Z,98424.15
2019-04-03T08:24:32.646Z,98428.92
2019-04-03T08:27:02.241Z,98419.84
2019-04-03T08:29:33.716Z,98407.66
2019-04-03T08:32:03.742Z,98407.66
2019-04-03T08:34:33.787Z,98413.81
2019-04-03T08:37:03.187Z,98413.93
2019-04-03T08:39:32.906Z,98414.38
2019-04-03T08:42:02.501Z,98414.38
2019-04-03T08:44:32.102Z,98409.27
2019-04-03T08:47:02.090Z,98409.27
2019-04-03T08:49:31.849Z,98413.03
2019-04-03T08:52:01.734Z,98412.34
2019-04-03T08:54:31.425Z,98406.80
2019-04-03T08:57:01.136Z,98401.78
2019-04-03T08:59:30.901Z,98402.64
2019-04-03T09:02:00.635Z,98402.23
2019-04-03T09:04:30.366Z,98400.50
2019-04-03T09:07:00.197Z,98391.31
2019-04-03T09:09:30.558Z,98398.55
2019-04-03T09:12:00.245Z,98383.89
2019-04-03T09:14:29.640Z,98378.64
2019-04-03T09:17:02.255Z,98382.45
2019-04-03T09:19:30.465Z,98381.06
2019-04-03T09:21:59.949Z,98375.45
2019-04-03T09:24:30.193Z,98363.72
2019-04-03T09:27:00.382Z,98362.52
2019-04-03T09:29:30.094Z,98350.31
2019-04-03T09:31:59.525Z,98360.23
2019-04-03T09:34:30.510Z,98347.44
2019-04-03T09:37:00.474Z,98344.45
2019-04-03T09:39:30.173Z,98342.87
2019-04-03T09:41:59.614Z,98334.04
2019-04-03T09:44:29.588Z,98338.02
2019-04-03T09:46:59.041Z,98338.09
2019-04-03T09:49:28.427Z,98330.44
2019-04-03T09:51:58.311Z,98329.82
2019-04-03T09:54:28.726Z,98321.09
2019-04-03T09:57:04.109Z,98318.38
2019-04-03T09:59:29.343Z,98318.89
2019-04-03T10:01:59.058Z,98311.95
2019-04-03T10:04:28.817Z,98315.23
2019-04-03T10:07:01.438Z,98310.55
2019-04-03T10:09:29.859Z,98313.59
2019-04-03T10:11:59.913Z,98300.66
2019-04-03T10:14:29.385Z,98284.69
2019-04-03T10:16:58.907Z,98300.52
2019-04-03T10:19:28.702Z,98286.47
2019-04-03T10:21:58.530Z,98286.55
2019-04-03T10:24:28.942Z,98290.24
2019-04-03T10:26:59.474Z,98280.88
2019-04-03T10:29:28.993Z,98284.52
2019-04-03T10:31:58.459Z,98270.77
2019-04-03T10:34:28.075Z,98264.49
2019-04-03T10:36:57.522Z,98261.95
2019-04-03T10:39:27.203Z,98259.84
2019-04-03T10:41:58.096Z,98250.09
2019-04-03T10:44:27.970Z,98255.77
2019-04-03T10:46:57.756Z,98260.43
2019-04-03T10:49:27.438Z,98246.58
2019-04-03T10:51:57.319Z,98251.13
2019-04-03T10:54:27.290Z,98236.34
2019-04-03T10:56:56.881Z,98226.55
2019-04-03T10:59:26.279Z,98227.97
2019-04-03T11:01:56.418Z,98223.16
2019-04-03T11:04:26.119Z,98227.44
2019-04-03T11:06:55.791Z,98223.31
2019-04-03T11:09:25.194Z,98224.38
2019-04-03T11:11:54.661Z,98210.89
2019-04-03T11:14:24.352Z,98203.22
2019-04-03T11:16:54.142Z,98203.61
2019-04-03T11:19:23.569Z,98202.59
2019-04-03T11:21:55.880Z,98190.50
2019-04-03T11:24:24.680Z,98196.44
2019-04-03T11:26:54.445Z,98187.93
2019-04-03T11:29:24.414Z,98193.27
2019-04-03T11:31:54.034Z,98185.73
2019-04-03T11:34:23.740Z,98187.48
2019-04-03T11:36:53.178Z,98180.74
2019-04-03T11:39:23.183Z,98169.83
2019-04-03T11:41:54.549Z,98170.61
2019-04-03T11:44:24.350Z,98167.90
2019-04-03T11:46:53.961Z,98158.71
2019-04-03T11:49:23.766Z,98158.27
2019-04-03T11:51:53.343Z,98151.11
2019-04-03T11:54:22.957Z,98155.39
2019-04-03T11:56:52.682Z,98144.37
2019-04-03T11:59:23.998Z,98150.17
2019-04-03T12:01:53.344Z,98141.70
2019-04-03T12:04:22.746Z,98140.34
2019-04-03T12:06:53.228Z,98136.05
2019-04-03T12:09:22.964Z,98130.90
2019-04-03T12:11:54.522Z,98130.23
2019-04-03T12:14:24.861Z,98124.19
2019-04-03T12:16:57.059Z,98120.63
2019-04-03T12:19:26.075Z,98115.77
2019-04-03T12:21:55.669Z,98105.91
2019-04-03T12:24:25.153Z,98109.90
2019-04-03T12:26:55.466Z,98107.81
2019-04-03T12:29:25.915Z,98099.12
2019-04-03T12:31:55.420Z,98101.11
2019-04-03T12:34:25.110Z,98097.08
2019-04-03T12:36:54.880Z,98094.50
2019-04-03T12:39:28.362Z,98089.25
2019-04-03T12:41:58.586Z,98090.11
2019-04-03T12:44:28.083Z,98084.95
2019-04-03T12:46:57.978Z,98083.03
2019-04-03T12:49:28.015Z,98085.17
2019-04-03T12:51:57.924Z,98079.72
2019-04-03T12:54:27.947Z,98073.98
2019-04-03T12:57:00.300Z,98067.84
2019-04-03T12:59:29.271Z,98069.42
2019-04-03T13:01:58.850Z,98069.42
2019-04-03T13:04:31.031Z,98073.72
2019-04-03T13:06:59.917Z,98057.59
2019-04-03T13:09:29.771Z,98060.12
2019-04-03T13:11:59.367Z,98060.32
2019-04-03T13:14:30.199Z,98059.69
2019-04-03T13:17:00.600Z,98045.05
2019-04-03T13:19:30.754Z,98046.30
2019-04-03T13:22:00.419Z,98045.31
2019-04-03T13:24:30.344Z,98049.82
2019-04-03T13:27:00.040Z,98053.88
2019-04-03T13:29:29.768Z,98048.70
2019-04-03T13:31:59.618Z,98049.72
2019-04-03T13:34:31.241Z,98042.06
2019-04-03T13:37:00.916Z,98039.08
2019-04-03T13:39:32.552Z,98035.89
2019-04-03T13:42:02.154Z,98036.82
2019-04-03T13:44:31.936Z,98035.50
2019-04-03T13:47:01.600Z,98022.75
2019-04-03T13:49:31.483Z,98025.91
2019-04-03T13:52:05.513Z,98023.89
2019-04-03T13:54:32.589Z,98025.72
2019-04-03T13:57:02.253Z,98017.63
2019-04-03T13:59:31.908Z,98015.36
2019-04-03T14:02:02.062Z,98024.37
2019-04-03T14:04:31.780Z,98017.59
2019-04-03T14:07:03.443Z,98011.05
2019-04-03T14:09:32.875Z,98012.85
2019-04-03T14:12:05.223Z,98013.32
2019-04-03T14:14:34.219Z,98016.80
2019-04-03T14:17:06.068Z,98016.41
2019-04-03T14:19:43.590Z,98012.78
2019-04-03T14:22:06.706Z,98014.59
2019-04-03T14:24:43.773Z,98010.32
2019-04-03T14:27:20.833Z,98009.38
2019-04-03T14:29:39.695Z,98005.96
2019-04-03T14:32:09.214Z,98006.84
2019-04-03T14:34:40.269Z,98005.95
2019-04-03T14:37:10.860Z,97999.45
2019-04-03T14:39:41.480Z,98001.90
2019-04-03T14:42:11.365Z,97995.54
2019-04-03T14:44:42.273Z,97995.45
2019-04-03T14:47:12.377Z,97990.95
2019-04-03T14:49:42.160Z,97993.10
2019-04-03T14:52:12.027Z,97987.75
2019-04-03T14:54:41.735Z,97978.55
2019-04-03T14:57:19.269Z,97981.09
2019-04-03T14:59:43.132Z,97976.48
2019-04-03T15:02:12.705Z,97979.55
2019-04-03T15:04:42.421Z,97989.31
2019-04-03T15:07:12.147Z,97983.85
2019-04-03T15:09:42.021Z,97982.20
2019-04-03T15:12:12.544Z,97981.83
2019-04-03T15:14:42.823Z,97981.22
2019-04-03T15:17:12.884Z,97978.56
2019-04-03T15:19:44.529Z,97980.38
2019-04-03T15:22:13.623Z,97975.92
2019-04-03T15:24:44.469Z,97974.86
2019-04-03T15:27:14.848Z,97969.48
2019-04-03T15:29:45.237Z,97970.44
2019-04-03T15:32:17.645Z,97968.25
2019-04-03T15:34:46.656Z,97962.34
2019-04-03T15:37:16.174Z,97968.45
2019-04-03T15:39:50.279Z,97968.75
2019-04-03T15:42:17.034Z,97967.41
2019-04-03T15:44:46.685Z,97965.61
2019-04-03T15:47:18.891Z,97966.23
2019-04-03T15:49:47.844Z,97963.48
2019-04-03T15:52:17.306Z,97970.48
2019-04-03T15:54:47.114Z,97968.70
2019-04-03T15:57:18.809Z,97967.91
2019-04-03T15:59:48.437Z,97967.55
2019-04-03T16:02:18.037Z,97967.97
2019-04-03T16:04:47.862Z,97965.25
2019-04-03T16:07:17.343Z,97961.25
2019-04-03T16:09:49.631Z,97965.98
2019-04-03T16:12:18.096Z,97964.61
2019-04-03T16:14:50.161Z,97962.42
2019-04-03T16:17:19.037Z,97958.67
2019-04-03T16:19:49.065Z,97958.82
2019-04-03T16:22:19.361Z,97961.91
2019-04-03T16:24:49.269Z,97962.18
2019-04-03T16:27:19.470Z,97965.74
2019-04-03T16:29:49.200Z,97961.24
2019-04-03T16:32:18.689Z,97964.70
2019-04-03T16:34:48.525Z,97959.31
2019-04-03T16:37:20.457Z,97963.48
2019-04-03T16:39:50.354Z,97966.13
2019-04-03T16:42:20.278Z,97962.70
2019-04-03T16:44:50.544Z,97964.47
2019-04-03T16:47:20.807Z,97964.32
2019-04-03T16:49:51.987Z,97961.10
2019-04-03T16:52:22.153Z,97963.07
2019-04-03T16:54:52.071Z,97960.14
2019-04-03T16:57:22.746Z,97960.66
2019-04-03T16:59:52.428Z,97958.16
2019-04-03T17:02:25.229Z,97956.96
2019-04-03T17:04:53.400Z,97958.16
2019-04-03T17:07:23.152Z,97962.11
2019-04-03T17:09:53.048Z,97963.48
2019-04-03T17:12:23.198Z,97965.18
2019-04-03T17:14:54.984Z,97969.25
2019-04-03T17:17:25.800Z,97968.89
2019-04-03T17:19:55.801Z,97972.63
2019-04-03T17:22:26.080Z,97973.27
2019-04-03T17:24:56.524Z,97975.67
2019-04-03T17:27:29.671Z,97975.45
2019-04-03T17:29:57.729Z,97974.75
2019-04-03T17:32:29.900Z,97975.51
2019-04-03T17:34:59.169Z,97983.72
2019-04-03T17:37:30.275Z,97984.29
2019-04-03T17:40:00.788Z,97985.93
2019-04-03T17:42:30.729Z,97984.73
2019-04-03T17:45:00.592Z,97989.55
2019-04-03T17:47:31.295Z,97991.59
2019-04-03T17:50:01.013Z,98000.66
2019-04-03T17:52:32.016Z,97995.45
2019-04-03T17:55:01.769Z,97999.70
2019-04-03T17:57:31.205Z,98002.33
2019-04-03T18:00:00.855Z,98002.83
2019-04-03T18:02:30.676Z,98010.50
2019-04-03T18:05:00.451Z,98012.44
2019-04-03T18:07:29.980Z,98015.53
2019-04-03T18:09:59.475Z,98018.58
2019-04-03T18:12:28.943Z,98016.08
2019-04-03T18:15:00.631Z,98021.35
2019-04-03T18:17:31.711Z,98024.68
2019-04-03T18:20:01.532Z,98025.23
2019-04-03T18:22:31.693Z,98025.01
2019-04-03T18:25:01.304Z,98021.08
2019-04-03T18:27:33.297Z,98022.70
2019-04-03T18:30:03.420Z,98016.33
2019-04-03T18:32:33.123Z,98022.91
2019-04-03T18:35:02.741Z,98021.28
2019-04-03T18:37:34.453Z,98027.00
2019-04-03T18:40:05.284Z,98026.59
2019-04-03T18:42:37.527Z,98036.06
2019-04-03T18:45:08.227Z,98029.51
2019-04-03T18:47:45.799Z,98035.47
2019-04-03T18:50:15.271Z,98037.97
2019-04-03T18:52:44.827Z,98033.55
2019-04-03T18:55:14.870Z,98037.08
2019-04-03T18:57:44.318Z,98038.27
2019-04-03T19:00:14.432Z,98041.60
2019-04-03T19:02:44.339Z,98042.53
2019-04-03T19:05:14.493Z,98040.35
2019-04-03T19:07:45.942Z,98039.04
2019-04-03T19:10:18.323Z,98038.76
2019-04-03T19:12:49.157Z,98044.82
2019-04-03T19:15:18.694Z,98046.72
2019-04-03T19:17:59.387Z,98044.72
2019-04-03T19:20:20.065Z,98051.19
2019-04-03T19:23:01.576Z,98052.06
2019-04-03T19:25:20.805Z,98053.84
2019-04-03T19:27:50.997Z,98060.22
2019-04-03T19:30:21.070Z,98059.44
2019-04-03T19:32:50.571Z,98061.28
2019-04-03T19:35:19.991Z,98073.21
2019-04-03T19:37:49.775Z,98068.16
2019-04-03T19:40:19.649Z,98074.30
2019-04-03T19:42:49.744Z,98071.42
2019-04-03T19:45:21.417Z,98073.13
2019-04-03T19:47:51.083Z,98078.72
2019-04-03T19:50:20.971Z,98077.41
2019-04-03T19:52:50.438Z,98082.86
2019-04-03T19:55:23.193Z,98088.89
2019-04-03T19:57:51.541Z,98090.64
2019-04-03T20:00:21.487Z,98087.68
2019-04-03T20:02:51.212Z,98091.17
2019-04-03T20:05:20.996Z,98093.25
2019-04-03T20:07:50.639Z,98094.95
2019-04-03T20:10:20.078Z,98099.88
2019-04-03T20:12:49.516Z,98099.77
2019-04-03T20:15:22.503Z,98100.25
2019-04-03T20:17:50.685Z,98105.20
2019-04-03T20:20:20.292Z,98105.24
2019-04-03T20:22:49.927Z,98104.85
2019-04-03T20:25:19.404Z,98096.88
2019-04-03T20:27:51.338Z,98107.53
2019-04-03T20:30:20.252Z,98107.69
2019-04-03T20:32:49.693Z,98108.63
2019-04-03T20:35:19.387Z,98108.97
2019-04-03T20:37:48.822Z,98111.69
2019-04-03T20:40:18.212Z,98110.99
2019-04-03T20:42:47.690Z,98106.70
2019-04-03T20:45:19.069Z,98104.20
2019-04-03T20:47:48.616Z,98106.95
2019-04-03T20:50:18.413Z,98114.62
2019-04-03T20:52:48.044Z,98115.86
2019-04-03T20:55:17.654Z,98117.58
2019-04-03T20:57:55.549Z,98115.50
2019-04-03T21:00:20.157Z,98117.70
2019-04-03T21:02:49.574Z,98119.95
2019-04-03T21:05:19.294Z,98118.30
2019-04-03T21:07:49.028Z,98118.87
2019-04-03T21:10:20.771Z,98121.23
2019-04-03T21:12:50.549Z,98127.70
2019-04-03T21:15:20.211Z,98130.84
2019-04-03T21:17:50.540Z,98138.83
2019-04-03T21:20:21.920Z,98141.87
2019-04-03T21:22:51.494Z,98146.33
2019-04-03T21:25:20.879Z,98148.45
2019-04-03T21:27:50.445Z,98149.81
2019-04-03T21:30:19.880Z,98154.19
2019-04-03T21:32:49.319Z,98157.70
2019-04-03T21:35:19.113Z,98155.64
2019-04-03T21:37:48.746Z,98159.17
2019-04-03T21:40:18.134Z,98161.03
2019-04-03T21:42:47.577Z,98160.19
2019-04-03T21:45:17.334Z,98161.46
2019-04-03T21:47:47.069Z,98165.97
2019-04-03T21:50:19.021Z,98164.61
2019-04-03T21:52:47.866Z,98162.49
2019-04-03T21:55:17.745Z,98169.48
2019-04-03T21:57:47.325Z,98170.41
2019-04-03T22:00:23.220Z,98179.81
2019-04-03T22:02:52.825Z,98172.95
2019-04-03T22:05:23.036Z,98182.58
2019-04-03T22:07:53.603Z,98175.64
2019-04-03T22:10:23.180Z,98180.96
2019-04-03T22:12:52.769Z,98181.88
2019-04-03T22:15:22.248Z,98187.55
2019-04-03T22:17:52.612Z,98183.12
2019-04-03T22:20:22.835Z,98179.78
2019-04-03T22:22:52.254Z,98182.95
2019-04-03T22:25:21.954Z,98186.02
2019-04-03T22:27:51.594Z,98182.00
2019-04-03T22:30:21.788Z,98183.88
2019-04-03T22:32:51.685Z,98178.81
2019-04-03T22:35:21.261Z,98187.69
2019-04-03T22:37:50.849Z,98189.54
2019-04-03T22:40:20.435Z,98183.23
2019-04-03T22:42:50.287Z,98185.39
2019-04-03T22:45:20.200Z,98194.30
2019-04-03T22:47:50.261Z,98190.65
2019-04-03T22:50:20.053Z,98193.00
2019-04-03T22:52:49.848Z,98188.61
2019-04-03T22:55:19.341Z,98196.30
2019-04-03T22:57:50.402Z,98185.39
2019-04-03T23:00:20.243Z,98190.98
2019-04-03T23:02:49.727Z,98191.84
2019-04-03T23:05:19.306Z,98190.19
2019-04-03T23:07:51.677Z,98193.19
2019-04-03T23:10:20.257Z,98191.92
2019-04-03T23:12:49.838Z,98187.14
2019-04-03T23:15:19.480Z,98187.45
2019-04-03T23:17:49.181Z,98184.42
2019-04-03T23:20:20.100Z,98186.03
2019-04-03T23:22:50.622Z,98189.48
2019-04-03T23:25:20.326Z,98179.12
2019-04-03T23:27:50.196Z,98183.95
2019-04-03T23:30:19.795Z,98180.61
2019-04-03T23:32:49.777Z,98187.06
2019-04-03T23:35:20.510Z,98191.39
2019-04-03T23:37:50.733Z,98189.64
2019-04-03T23:40:20.568Z,98189.59
2019-04-03T23:42:50.353Z,98186.16
2019-04-03T23:45:20.955Z,98184.56
2019-04-03T23:47:50.665Z,98187.52
2019-04-03T23:50:22.010Z,98184.47
2019-04-03T23:52:51.800Z,98179.59
2019-04-03T23:55:21.355Z,98181.38
2019-04-03T23:57:50.871Z,98172.10
